createdAt,value
2023-03-10T00:00:15.110Z,9.30
2023-03-10T00:02:49.651Z,9.20
2023-03-10T00:05:21.464Z,9.10
2023-03-10T00:07:51.201Z,9.10
2023-03-10T00:10:20.520Z,9.00
2023-03-10T00:12:49.349Z,9.00
2023-03-10T00:15:18.363Z,8.90
2023-03-10T00:17:50.151Z,9.10
2023-03-10T00:20:20.543Z,9.00
2023-03-10T00:22:49.361Z,9.00
2023-03-10T00:25:18.445Z,9.00
2023-03-10T00:27:47.332Z,9.10
2023-03-10T00:30:16.570Z,9.10
2023-03-10T00:32:45.367Z,9.10
2023-03-10T00:35:14.195Z,9.00
2023-03-10T00:37:44.417Z,9.10
2023-03-10T00:40:15.465Z,9.10
2023-03-10T00:42:44.893Z,9.10
2023-03-10T00:45:13.707Z,9.00
2023-03-10T00:47:42.836Z,9.10
2023-03-10T00:50:13.126Z,9.10
2023-03-10T00:52:43.464Z,9.10
2023-03-10T00:55:14.193Z,9.20
2023-03-10T00:57:43.305Z,9.00
2023-03-10T01:00:16.117Z,9.10
2023-03-10T01:02:44.902Z,9.10
2023-03-10T01:05:14.881Z,9.10
2023-03-10T01:07:45.030Z,9.10
2023-03-10T01:10:14.795Z,9.10
2023-03-10T01:12:43.866Z,9.10
2023-03-10T01:15:14.734Z,9.10
2023-03-10T01:17:43.729Z,8.90
2023-03-10T01:20:16.754Z,8.80
2023-03-10T01:22:47.016Z,8.80
2023-03-10T01:25:16.813Z,8.70
2023-03-10T01:27:45.664Z,8.70
2023-03-10T01:30:16.081Z,8.50
2023-03-10T01:32:45.044Z,8.30
2023-03-10T01:35:14.109Z,8.20
2023-03-10T01:37:44.491Z,8.10
2023-03-10T01:40:18.921Z,8.00
2023-03-10T01:42:48.020Z,7.90
2023-03-10T01:46:08.737Z,7.90
2023-03-10T01:48:38.938Z,8.00
2023-03-10T01:51:07.878Z,8.30
2023-03-10T01:53:36.656Z,8.20
2023-03-10T01:56:08.473Z,8.30
2023-03-10T01:58:44.487Z,8.40
2023-03-10T02:01:15.760Z,8.40
2023-03-10T02:03:54.103Z,8.40
2023-03-10T02:06:24.868Z,8.30
2023-03-10T02:08:57.855Z,8.10
2023-03-10T02:11:28.147Z,8.00
2023-03-10T02:13:58.017Z,8.00
2023-03-10T02:16:26.928Z,8.00
2023-03-10T02:18:55.866Z,8.00
2023-03-10T02:21:40.876Z,8.10
2023-03-10T02:24:20.436Z,7.80
2023-03-10T02:26:59.272Z,7.90
2023-03-10T02:29:38.418Z,7.90
2023-03-10T02:32:14.021Z,7.80
2023-03-10T02:34:43.410Z,7.80
2023-03-10T02:37:23.195Z,7.90
2023-03-10T02:39:52.257Z,7.80
2023-03-10T02:42:23.992Z,7.70
2023-03-10T02:44:55.807Z,7.60
2023-03-10T02:47:24.737Z,7.60
2023-03-10T02:49:53.503Z,7.60
2023-03-10T02:52:39.572Z,7.70
2023-03-10T02:55:09.536Z,7.60
2023-03-10T02:57:38.491Z,7.60
2023-03-10T03:00:11.814Z,7.50
2023-03-10T03:02:40.665Z,7.50
2023-03-10T03:05:10.658Z,7.30
2023-03-10T03:07:39.524Z,7.30
2023-03-10T03:10:09.913Z,7.30
2023-03-10T03:12:38.681Z,7.30
2023-03-10T03:15:10.465Z,7.30
2023-03-10T03:17:39.414Z,7.40
2023-03-10T03:20:14.536Z,7.30
2023-03-10T03:22:44.705Z,7.20
2023-03-10T03:25:16.871Z,7.20
2023-03-10T03:27:46.473Z,7.10
2023-03-10T03:30:22.103Z,7.10
2023-03-10T03:32:52.922Z,7.10
2023-03-10T03:35:25.244Z,7.30
2023-03-10T03:37:54.431Z,7.30
2023-03-10T03:40:25.147Z,7.30
2023-03-10T03:42:56.053Z,7.40
2023-03-10T03:45:32.880Z,7.50
2023-03-10T03:48:02.031Z,7.50
2023-03-10T03:50:30.809Z,7.50
2023-03-10T03:52:59.697Z,7.50
2023-03-10T03:55:29.781Z,7.50
2023-03-10T03:57:58.747Z,7.60
2023-03-10T04:00:29.320Z,7.50
2023-03-10T04:03:01.236Z,7.40
2023-03-10T04:05:30.306Z,7.40
2023-03-10T04:07:59.521Z,7.40
2023-03-10T04:10:29.209Z,7.50
2023-03-10T04:12:58.702Z,7.40
2023-03-10T04:15:29.168Z,7.30
2023-03-10T04:17:58.921Z,7.40
2023-03-10T04:20:28.466Z,7.30
2023-03-10T04:22:57.321Z,7.10
2023-03-10T04:25:26.375Z,6.90
2023-03-10T04:27:55.277Z,6.90
2023-03-10T04:30:29.363Z,7.00
2023-03-10T04:33:02.038Z,6.90
2023-03-10T04:35:31.516Z,6.80
2023-03-10T04:38:00.336Z,6.80
2023-03-10T04:40:29.127Z,6.80
2023-03-10T04:42:57.983Z,6.70
2023-03-10T04:45:26.844Z,6.70
2023-03-10T04:47:55.914Z,6.60
2023-03-10T04:50:26.440Z,6.60
2023-03-10T04:52:55.330Z,6.60
2023-03-10T04:55:24.185Z,6.60
2023-03-10T04:57:53.219Z,6.60
2023-03-10T05:00:23.010Z,6.60
2023-03-10T05:02:52.142Z,6.70
2023-03-10T05:05:21.064Z,6.70
2023-03-10T05:07:51.264Z,6.80
2023-03-10T05:10:20.458Z,6.70
2023-03-10T05:12:49.245Z,6.70
2023-03-10T05:15:18.964Z,6.70
2023-03-10T05:17:50.021Z,6.70
2023-03-10T05:20:20.607Z,6.60
2023-03-10T05:22:50.867Z,6.60
2023-03-10T05:25:20.038Z,6.50
2023-03-10T05:27:49.007Z,6.60
2023-03-10T05:30:19.044Z,6.50
2023-03-10T05:32:48.144Z,6.60
2023-03-10T05:35:17.043Z,6.70
2023-03-10T05:37:46.297Z,6.90
2023-03-10T05:40:20.202Z,7.00
2023-03-10T05:42:49.887Z,7.30
2023-03-10T05:45:19.790Z,7.50
2023-03-10T05:47:52.105Z,7.80
2023-03-10T05:50:24.033Z,8.00
2023-03-10T05:52:53.017Z,8.40
2023-03-10T05:55:24.208Z,8.90
2023-03-10T05:57:53.162Z,9.20
2023-03-10T06:00:23.224Z,9.30
2023-03-10T06:02:55.606Z,9.60
2023-03-10T06:05:24.843Z,9.80
2023-03-10T06:07:53.729Z,10.10
2023-03-10T06:10:24.158Z,10.70
2023-03-10T06:12:52.899Z,11.10
2023-03-10T06:15:22.542Z,11.10
2023-03-10T06:17:51.502Z,11.50
2023-03-10T06:20:20.500Z,11.80
2023-03-10T06:22:49.261Z,12.00
2023-03-10T06:25:18.416Z,11.90
2023-03-10T06:27:49.061Z,11.60
2023-03-10T06:30:18.634Z,11.90
2023-03-10T06:32:47.694Z,12.10
2023-03-10T06:35:17.813Z,12.20
2023-03-10T06:37:46.742Z,11.90
2023-03-10T06:40:16.186Z,11.90
2023-03-10T06:42:47.276Z,12.30
2023-03-10T06:45:18.797Z,12.70
2023-03-10T06:47:47.615Z,12.80
2023-03-10T06:50:16.677Z,12.30
2023-03-10T06:52:45.861Z,11.90
2023-03-10T06:55:16.100Z,12.30
2023-03-10T06:57:45.068Z,12.80
2023-03-10T07:00:18.367Z,12.80
2023-03-10T07:02:47.206Z,13.30
2023-03-10T07:05:16.311Z,13.10
2023-03-10T07:07:45.168Z,13.00
2023-03-10T07:10:16.960Z,13.30
2023-03-10T07:12:45.970Z,13.70
2023-03-10T07:15:16.359Z,14.10
2023-03-10T07:17:45.192Z,13.80
2023-03-10T07:20:15.401Z,13.70
2023-03-10T07:22:44.151Z,13.70
2023-03-10T07:25:13.180Z,13.90
2023-03-10T07:27:42.003Z,14.30
2023-03-10T07:30:12.698Z,14.00
2023-03-10T07:32:43.065Z,14.90
2023-03-10T07:35:12.126Z,15.50
2023-03-10T07:37:41.828Z,16.10
2023-03-10T07:40:12.586Z,16.10
2023-03-10T07:42:41.433Z,16.30
2023-03-10T07:45:10.900Z,15.60
2023-03-10T07:47:39.656Z,16.30
2023-03-10T07:50:11.932Z,16.30
2023-03-10T07:52:40.787Z,16.90
2023-03-10T07:55:10.882Z,17.10
2023-03-10T07:57:39.666Z,17.00
2023-03-10T08:00:10.505Z,17.20
2023-03-10T08:02:39.535Z,16.80
2023-03-10T08:05:15.113Z,17.00
2023-03-10T08:07:43.927Z,17.30
2023-03-10T08:10:14.427Z,17.40
2023-03-10T08:12:43.315Z,17.40
2023-03-10T08:15:13.457Z,17.90
2023-03-10T08:17:42.376Z,18.90
2023-03-10T08:20:14.383Z,18.80
2023-03-10T08:22:43.166Z,19.10
2023-03-10T08:25:13.111Z,18.40
2023-03-10T08:27:42.753Z,18.40
2023-03-10T08:30:13.590Z,18.60
2023-03-10T08:32:42.483Z,18.60
2023-03-10T08:35:13.509Z,18.80
2023-03-10T08:37:43.621Z,18.90
2023-03-10T08:40:16.188Z,18.90
2023-03-10T08:42:47.043Z,18.70
2023-03-10T08:45:17.109Z,18.30
2023-03-10T08:47:46.193Z,18.60
2023-03-10T08:50:16.595Z,18.80
2023-03-10T08:52:45.399Z,19.20
2023-03-10T08:55:15.638Z,19.60
2023-03-10T08:57:44.382Z,20.30
2023-03-10T09:00:17.011Z,20.50
2023-03-10T09:02:46.338Z,20.00
2023-03-10T09:05:16.482Z,19.80
2023-03-10T09:07:45.228Z,20.00
2023-03-10T09:10:14.114Z,19.80
2023-03-10T09:12:42.872Z,19.40
2023-03-10T09:15:12.497Z,19.00
2023-03-10T09:17:41.282Z,19.60
2023-03-10T09:20:11.492Z,19.40
2023-03-10T09:22:41.689Z,20.00
2023-03-10T09:25:12.412Z,20.20
2023-03-10T09:27:41.215Z,20.70
2023-03-10T09:30:11.818Z,20.40
2023-03-10T09:32:40.888Z,20.60
2023-03-10T09:35:11.557Z,20.80
2023-03-10T09:37:41.715Z,21.20
2023-03-10T09:40:18.722Z,21.30
2023-03-10T09:42:50.493Z,21.50
2023-03-10T09:45:31.938Z,21.70
2023-03-10T09:48:26.298Z,21.70
2023-03-10T09:50:56.924Z,22.40
2023-03-10T09:53:54.650Z,23.20
2023-03-10T09:56:31.657Z,22.20
2023-03-10T09:59:09.821Z,21.80
2023-03-10T10:01:44.349Z,21.80
2023-03-10T10:04:19.268Z,21.00
2023-03-10T10:06:51.175Z,20.80
2023-03-10T10:09:32.507Z,21.50
2023-03-10T10:12:13.488Z,22.20
2023-03-10T10:14:55.036Z,22.70
2023-03-10T10:17:53.673Z,22.90
2023-03-10T10:20:30.101Z,22.60
2023-03-10T10:22:58.847Z,22.70
2023-03-10T10:25:33.204Z,22.50
2023-03-10T10:28:06.408Z,22.20
2023-03-10T10:30:39.611Z,22.30
2023-03-10T10:33:11.051Z,22.00
2023-03-10T10:35:43.131Z,21.90
2023-03-10T10:38:27.058Z,22.00
2023-03-10T10:41:07.144Z,21.40
2023-03-10T10:43:43.949Z,21.50
2023-03-10T10:46:15.715Z,21.70
2023-03-10T10:48:47.334Z,21.80
2023-03-10T10:51:28.998Z,22.20
2023-03-10T10:53:58.780Z,21.70
2023-03-10T10:56:30.527Z,21.60
2023-03-10T10:59:07.200Z,21.30
2023-03-10T11:01:58.505Z,21.00
2023-03-10T11:04:30.205Z,21.40
2023-03-10T11:07:17.913Z,21.70
2023-03-10T11:09:47.901Z,21.50
2023-03-10T11:12:26.755Z,21.30
2023-03-10T11:15:16.006Z,21.10
2023-03-10T11:17:55.179Z,21.20
2023-03-10T11:20:32.925Z,21.40
2023-03-10T11:23:16.575Z,21.30
2023-03-10T11:25:53.332Z,21.40
2023-03-10T11:28:50.951Z,21.20
2023-03-10T11:31:36.438Z,21.40
2023-03-10T11:34:20.099Z,21.60
2023-03-10T11:37:06.612Z,22.00
2023-03-10T11:39:49.705Z,22.00
2023-03-10T11:42:31.234Z,21.70
2023-03-10T11:45:31.393Z,21.80
2023-03-10T11:48:23.112Z,21.90
2023-03-10T11:50:56.281Z,22.00
2023-03-10T11:53:36.800Z,21.90
2023-03-10T11:56:09.367Z,21.90
2023-03-10T11:58:47.639Z,21.50
2023-03-10T12:01:24.611Z,21.40
2023-03-10T12:04:03.695Z,21.40
2023-03-10T12:06:42.551Z,21.40
2023-03-10T12:09:27.238Z,21.50
2023-03-10T12:11:57.639Z,21.60
2023-03-10T12:14:26.980Z,21.60
2023-03-10T12:16:58.044Z,21.50
2023-03-10T12:19:26.818Z,21.10
2023-03-10T12:22:26.937Z,20.80
2023-03-10T12:24:55.827Z,20.40
2023-03-10T12:27:24.660Z,20.20
2023-03-10T12:29:53.818Z,20.10
2023-03-10T12:32:49.151Z,20.00
2023-03-10T12:35:50.854Z,19.90
2023-03-10T12:38:49.042Z,20.20
2023-03-10T12:41:50.640Z,20.00
2023-03-10T12:44:53.250Z,20.20
2023-03-10T12:47:33.089Z,20.10
2023-03-10T12:50:22.964Z,20.00
2023-03-10T12:53:01.027Z,20.10
2023-03-10T12:55:30.841Z,20.20
2023-03-10T12:58:08.823Z,20.20
2023-03-10T13:00:49.034Z,20.20
2023-03-10T13:03:31.890Z,20.30
2023-03-10T13:06:07.134Z,20.20
2023-03-10T13:08:45.373Z,20.10
2023-03-10T13:11:37.723Z,20.20
2023-03-10T13:14:13.733Z,20.10
2023-03-10T13:16:43.411Z,19.90
2023-03-10T13:19:22.027Z,20.10
2023-03-10T13:21:53.782Z,20.20
2023-03-10T13:24:27.074Z,20.30
2023-03-10T13:27:08.286Z,20.20
2023-03-10T13:29:37.246Z,20.30
2023-03-10T13:32:07.696Z,20.30
2023-03-10T13:34:38.818Z,20.20
2023-03-10T13:37:13.050Z,20.20
2023-03-10T13:39:41.915Z,20.30
2023-03-10T13:42:37.215Z,20.20
2023-03-10T13:45:24.117Z,20.10
2023-03-10T13:47:55.755Z,20.00
2023-03-10T13:50:25.608Z,19.90
2023-03-10T13:52:59.747Z,20.00
2023-03-10T13:55:29.660Z,20.20
2023-03-10T13:57:59.774Z,20.00
2023-03-10T14:00:29.789Z,19.60
2023-03-10T14:02:58.953Z,19.40
2023-03-10T14:05:46.643Z,19.30
2023-03-10T14:08:35.977Z,19.40
2023-03-10T14:11:32.492Z,19.30
2023-03-10T14:14:02.021Z,19.30
2023-03-10T14:16:53.046Z,19.40
2023-03-10T14:19:50.097Z,19.30
2023-03-10T14:22:35.457Z,19.00
2023-03-10T14:25:13.702Z,18.90
2023-03-10T14:27:46.591Z,18.80
2023-03-10T14:30:26.138Z,18.80
2023-03-10T14:32:56.211Z,18.60
2023-03-10T14:35:27.613Z,18.60
2023-03-10T14:37:56.742Z,18.50
2023-03-10T14:40:27.682Z,18.30
2023-03-10T14:43:02.458Z,18.30
2023-03-10T14:45:34.870Z,18.20
2023-03-10T14:48:11.790Z,18.30
2023-03-10T14:50:40.664Z,18.20
2023-03-10T14:53:13.010Z,18.10
2023-03-10T14:55:47.732Z,18.10
2023-03-10T14:58:21.612Z,18.10
2023-03-10T15:00:51.564Z,18.20
2023-03-10T15:03:21.794Z,18.30
2023-03-10T15:05:50.621Z,18.30
2023-03-10T15:08:19.851Z,18.30
2023-03-10T15:10:52.400Z,18.20
2023-03-10T15:13:24.343Z,18.30
2023-03-10T15:15:53.809Z,18.30
2023-03-10T15:18:27.122Z,18.30
2023-03-10T15:20:59.161Z,18.20
2023-03-10T15:23:29.550Z,18.20
2023-03-10T15:26:03.004Z,18.10
2023-03-10T15:28:31.678Z,18.00
2023-03-10T15:31:00.438Z,18.00
2023-03-10T15:33:29.272Z,18.00
2023-03-10T15:35:58.123Z,18.00
2023-03-10T15:38:27.262Z,17.90
2023-03-10T15:40:56.916Z,17.80
2023-03-10T15:43:27.231Z,17.90
2023-03-10T15:45:56.193Z,17.80
2023-03-10T15:48:25.099Z,17.70
2023-03-10T15:50:53.816Z,17.60
2023-03-10T15:53:22.688Z,17.60
2023-03-10T15:55:52.658Z,17.60
2023-03-10T15:58:21.592Z,17.50
2023-03-10T16:00:51.905Z,17.50
2023-03-10T16:03:20.720Z,17.40
2023-03-10T16:05:49.991Z,17.40
2023-03-10T16:08:19.518Z,17.40
2023-03-10T16:10:55.434Z,17.40
2023-03-10T16:13:25.140Z,17.30
2023-03-10T16:15:55.416Z,17.30
2023-03-10T16:18:24.288Z,17.20
2023-03-10T16:21:00.846Z,17.00
2023-03-10T16:23:32.637Z,16.90
2023-03-10T16:26:10.975Z,16.90
2023-03-10T16:28:42.006Z,16.90
2023-03-10T16:31:14.809Z,16.90
2023-03-10T16:33:44.438Z,16.90
2023-03-10T16:36:17.432Z,16.70
2023-03-10T16:38:46.770Z,16.70
2023-03-10T16:41:15.866Z,16.80
2023-03-10T16:43:45.063Z,16.70
2023-03-10T16:46:20.292Z,16.70
2023-03-10T16:48:50.287Z,16.70
2023-03-10T16:51:29.660Z,16.60
2023-03-10T16:54:00.907Z,16.40
2023-03-10T16:56:32.714Z,16.30
2023-03-10T16:59:01.663Z,16.30
2023-03-10T17:01:36.682Z,16.10
2023-03-10T17:04:05.877Z,16.00
2023-03-10T17:06:35.859Z,15.90
2023-03-10T17:09:07.216Z,15.90
2023-03-10T17:11:39.267Z,15.80
2023-03-10T17:14:14.257Z,15.70
2023-03-10T17:16:45.333Z,15.70
2023-03-10T17:19:17.909Z,15.70
2023-03-10T17:21:51.496Z,15.50
2023-03-10T17:24:21.571Z,15.50
2023-03-10T17:26:50.643Z,15.40
2023-03-10T17:29:20.081Z,15.30
2023-03-10T17:31:51.890Z,15.20
2023-03-10T17:34:21.647Z,15.30
2023-03-10T17:36:52.282Z,15.30
2023-03-10T17:39:24.086Z,15.10
2023-03-10T17:41:54.639Z,15.10
2023-03-10T17:44:24.147Z,15.20
2023-03-10T17:46:56.055Z,15.20
2023-03-10T17:49:25.116Z,15.10
2023-03-10T17:51:54.058Z,15.10
2023-03-10T17:54:23.840Z,15.10
2023-03-10T17:56:52.935Z,15.00
2023-03-10T17:59:21.836Z,15.00
2023-03-10T18:01:50.865Z,15.00
2023-03-10T18:04:21.140Z,15.00
2023-03-10T18:06:50.193Z,15.00
2023-03-10T18:09:21.128Z,15.10
2023-03-10T18:11:50.057Z,15.00
2023-03-10T18:14:20.398Z,14.90
2023-03-10T18:16:49.320Z,14.90
2023-03-10T18:19:21.397Z,14.90
2023-03-10T18:21:51.125Z,15.00
2023-03-10T18:24:19.943Z,14.90
2023-03-10T18:26:48.743Z,14.80
2023-03-10T18:29:18.335Z,14.60
2023-03-10T18:31:47.185Z,14.70
2023-03-10T18:34:15.942Z,14.70
2023-03-10T18:39:15.189Z,14.70
2023-03-10T18:41:44.034Z,14.80
2023-03-10T18:44:12.811Z,14.90
2023-03-10T18:46:41.646Z,14.80
2023-03-10T18:49:10.676Z,14.80
2023-03-10T18:51:39.588Z,14.70
2023-03-10T18:54:09.833Z,14.60
2023-03-10T18:56:38.682Z,14.60
2023-03-10T18:59:07.493Z,14.40
2023-03-10T19:01:37.159Z,14.40
2023-03-10T19:04:06.024Z,14.40
2023-03-10T19:06:36.207Z,14.40
2023-03-10T19:09:08.563Z,14.30
2023-03-10T19:11:40.340Z,14.20
2023-03-10T19:14:09.512Z,14.20
2023-03-10T19:16:39.871Z,14.10
2023-03-10T19:19:09.491Z,14.20
2023-03-10T19:21:39.110Z,14.20
2023-03-10T19:24:08.975Z,14.20
2023-03-10T19:26:39.425Z,14.40
2023-03-10T19:29:08.288Z,14.40
2023-03-10T19:31:37.255Z,14.40
2023-03-10T19:34:06.010Z,14.30
2023-03-10T19:36:34.890Z,14.40
2023-03-10T19:39:03.784Z,14.20
2023-03-10T19:41:32.796Z,14.10
2023-03-10T19:44:03.006Z,14.00
2023-03-10T19:46:32.313Z,13.90
2023-03-10T19:49:01.112Z,13.80
2023-03-10T19:51:30.761Z,13.70
2023-03-10T19:54:02.942Z,13.80
2023-03-10T19:56:32.286Z,13.70
2023-03-10T19:59:02.597Z,13.70
2023-03-10T20:01:31.594Z,13.70
2023-03-10T20:04:03.365Z,13.70
2023-03-10T20:06:32.703Z,13.70
2023-03-10T20:09:01.440Z,13.60
2023-03-10T20:11:30.388Z,13.60
2023-03-10T20:13:59.321Z,13.60
2023-03-10T20:16:29.781Z,13.50
2023-03-10T20:18:58.565Z,13.40
2023-03-10T20:21:28.436Z,13.40
2023-03-10T20:23:57.268Z,13.30
2023-03-10T20:26:26.247Z,13.20
2023-03-10T20:28:55.046Z,13.10
2023-03-10T20:31:26.327Z,13.10
2023-03-10T20:33:56.609Z,13.00
2023-03-10T20:36:25.398Z,13.00
2023-03-10T20:38:54.218Z,12.90
2023-03-10T20:41:23.189Z,12.90
2023-03-10T20:43:53.478Z,12.90
2023-03-10T20:46:22.936Z,12.80
2023-03-10T20:48:52.069Z,12.80
2023-03-10T20:51:23.503Z,12.70
2023-03-10T20:53:52.996Z,12.70
2023-03-10T20:56:21.973Z,12.80
2023-03-10T20:58:50.745Z,12.80
2023-03-10T21:01:22.201Z,12.80
2023-03-10T21:03:54.756Z,12.80
2023-03-10T21:06:26.980Z,12.70
2023-03-10T21:08:55.816Z,12.80
2023-03-10T21:11:24.614Z,12.70
2023-03-10T21:13:53.399Z,12.80
2023-03-10T21:16:22.195Z,12.90
2023-03-10T21:18:51.022Z,13.00
2023-03-10T21:21:19.929Z,13.00
2023-03-10T21:23:50.331Z,13.00
2023-03-10T21:26:22.380Z,12.90
2023-03-10T21:28:51.183Z,12.90
2023-03-10T21:31:20.197Z,12.70
2023-03-10T21:33:50.275Z,12.60
2023-03-10T21:36:22.400Z,12.40
2023-03-10T21:38:53.025Z,12.30
2023-03-10T21:41:25.254Z,12.30
2023-03-10T21:43:57.576Z,12.30
2023-03-10T21:46:27.328Z,12.30
2023-03-10T21:48:56.525Z,12.30
2023-03-10T21:51:27.695Z,12.20
2023-03-10T21:53:57.971Z,12.30
2023-03-10T21:56:28.897Z,12.20
2023-03-10T21:58:58.827Z,12.20
2023-03-10T22:01:28.703Z,12.10
2023-03-10T22:03:57.896Z,12.10
2023-03-10T22:06:26.827Z,12.10
2023-03-10T22:08:56.992Z,12.10
2023-03-10T22:11:25.838Z,12.00
2023-03-10T22:13:55.536Z,12.10
2023-03-10T22:16:24.613Z,12.10
2023-03-10T22:18:53.453Z,12.00
2023-03-10T22:21:22.352Z,12.00
2023-03-10T22:23:51.176Z,12.00
2023-03-10T22:26:21.360Z,12.00
2023-03-10T22:28:50.119Z,12.00
2023-03-10T22:31:19.369Z,12.00
2023-03-10T22:33:49.434Z,11.90
2023-03-10T22:36:18.969Z,11.90
2023-03-10T22:38:47.740Z,12.00
2023-03-10T22:41:16.530Z,11.90
2023-03-10T22:43:46.764Z,11.80
2023-03-10T22:46:17.863Z,11.80
2023-03-10T22:48:46.924Z,11.90
2023-03-10T22:51:20.028Z,11.80
2023-03-10T22:53:48.835Z,11.90
2023-03-10T22:56:17.662Z,11.80
2023-03-10T22:58:47.798Z,11.80
2023-03-10T23:01:16.608Z,11.80
2023-03-10T23:03:45.617Z,11.80
2023-03-10T23:06:14.727Z,11.70
2023-03-10T23:08:46.504Z,11.60
2023-03-10T23:11:17.614Z,11.60
2023-03-10T23:13:47.869Z,11.60
2023-03-10T23:16:18.262Z,11.60
2023-03-10T23:18:47.979Z,11.60
2023-03-10T23:21:17.003Z,11.60
2023-03-10T23:23:48.066Z,11.70
2023-03-10T23:26:17.011Z,11.70
2023-03-10T23:28:47.566Z,11.60
2023-03-10T23:31:17.228Z,11.60
2023-03-10T23:33:47.008Z,11.70
2023-03-10T23:36:15.943Z,11.70
2023-03-10T23:38:44.773Z,11.60
2023-03-10T23:41:14.142Z,11.60
2023-03-10T23:43:43.356Z,11.60
2023-03-10T23:46:14.764Z,11.50
2023-03-10T23:48:43.580Z,11.40
2023-03-10T23:51:15.795Z,11.40
2023-03-10T23:53:46.159Z,11.30
2023-03-10T23:56:14.984Z,11.30
2023-03-10T23:58:43.741Z,11.30
